Time;durP1;ratioP1;P1;durP2;ratioP2;P2;SDS_P1;SDS_P2;PMS_P1;PMS_P2;Temp;Humidity;BMP_temperature;BMP_pressure;BME280_temperature;BME280_humidity;BME280_pressure;Samples;Min_cycle;Max_cycle;Signal;HPM_P1;HPM_P2
2022/09/24 00:00:13;;;;;;;34.40;30.55;;;19.90;99.90;;;;;;6142596;28;89031;-62
2022/09/24 00:03:15;;;;;;;33.40;29.65;;;19.90;99.90;;;;;;6145473;28;89208;-61
2022/09/24 00:06:18;;;;;;;33.03;29.42;;;19.80;99.90;;;;;;6160921;28;89097;-62
2022/09/24 00:09:22;;;;;;;34.05;30.35;;;19.90;99.90;;;;;;6153963;28;89124;-62
2022/09/24 00:12:24;;;;;;;33.88;29.88;;;19.90;99.90;;;;;;6145835;28;88694;-62
2022/09/24 00:15:28;;;;;;;33.08;29.58;;;19.80;99.90;;;;;;6152600;28;88068;-61
2022/09/24 00:18:30;;;;;;;32.90;29.13;;;19.80;99.90;;;;;;6146855;28;89303;-62
2022/09/24 00:21:34;;;;;;;33.08;28.95;;;19.80;99.90;;;;;;6136368;28;89473;-62
2022/09/24 00:28:07;;;;;;;33.40;29.13;;;19.80;99.90;;;;;;6071236;28;87655;-61
2022/09/24 00:31:11;;;;;;;33.08;29.55;;;19.90;99.90;;;;;;6150365;28;89179;-61
2022/09/24 00:34:13;;;;;;;31.88;28.52;;;19.80;99.90;;;;;;6142893;28;88974;-64
2022/09/24 00:37:15;;;;;;;32.35;28.92;;;19.80;99.90;;;;;;6156738;28;89235;-64
2022/09/24 00:40:18;;;;;;;32.97;28.95;;;19.80;99.90;;;;;;6151607;28;89047;-64
2022/09/24 00:43:25;;;;;;;31.60;28.30;;;19.80;99.90;;;;;;6149688;28;88346;-64
2022/09/24 00:46:32;;;;;;;32.17;28.73;;;19.80;99.90;;;;;;6150745;28;89345;-64
2022/09/24 00:49:34;;;;;;;32.25;28.75;;;19.80;99.90;;;;;;6155000;28;89114;-64
2022/09/24 00:52:40;;;;;;;31.33;27.83;;;19.80;99.90;;;;;;6139960;28;88909;-64
2022/09/24 00:55:45;;;;;;;31.83;27.73;;;19.80;99.90;;;;;;6145211;28;89064;-64
2022/09/24 00:58:51;;;;;;;32.10;28.60;;;19.80;99.90;;;;;;6144064;28;89058;-64
2022/09/24 01:01:57;;;;;;;31.05;27.67;;;19.80;99.90;;;;;;6157388;28;89030;-64
2022/09/24 01:04:59;;;;;;;31.08;27.77;;;19.80;99.90;;;;;;6161620;28;89424;-64
2022/09/24 01:08:02;;;;;;;30.10;26.90;;;19.80;99.90;;;;;;6156034;28;89094;-64
2022/09/24 01:11:15;;;;;;;30.88;27.58;;;19.80;99.90;;;;;;6155804;28;89050;-64
2022/09/24 01:14:34;;;;;;;30.63;27.27;;;19.80;99.90;;;;;;6136629;28;88383;-64
2022/09/24 01:17:43;;;;;;;31.65;28.25;;;19.80;99.90;;;;;;6153960;28;89034;-64
2022/09/24 01:21:00;;;;;;;31.10;27.80;;;19.90;99.90;;;;;;6143913;28;89104;-64
2022/09/24 01:24:39;;;;;;;30.38;27.08;;;19.90;99.90;;;;;;6134051;28;90106;-64
2022/09/24 01:28:01;;;;;;;29.00;26.00;;;19.80;99.90;;;;;;6132987;28;89001;-61
2022/09/24 01:31:10;;;;;;;30.70;27.40;;;19.80;99.90;;;;;;6145553;28;89322;-62
2022/09/24 01:34:18;;;;;;;29.73;26.48;;;19.80;99.90;;;;;;6143395;28;89187;-61
2022/09/24 01:37:24;;;;;;;28.67;25.58;;;19.80;99.90;;;;;;6144936;28;89138;-61
2022/09/24 01:40:28;;;;;;;30.95;27.65;;;19.80;99.90;;;;;;6145672;28;89443;-62
2022/09/24 01:43:31;;;;;;;29.88;26.67;;;19.80;99.90;;;;;;6131997;28;89006;-61
2022/09/24 01:46:38;;;;;;;29.60;26.50;;;19.80;99.90;;;;;;6153381;28;87321;-61
2022/09/24 01:49:40;;;;;;;29.55;26.45;;;19.90;99.90;;;;;;6147812;28;89197;-64
2022/09/24 01:52:48;;;;;;;28.88;25.88;;;19.80;99.90;;;;;;6142552;28;90288;-64
2022/09/24 01:55:57;;;;;;;28.50;25.50;;;19.80;99.90;;;;;;6150899;28;90016;-64
2022/09/24 01:59:04;;;;;;;28.23;25.25;;;19.80;99.90;;;;;;6139885;28;89080;-64
2022/09/24 02:02:13;;;;;;;28.88;25.88;;;19.80;99.90;;;;;;6145197;28;89174;-64
2022/09/24 02:05:23;;;;;;;28.55;25.55;;;19.80;99.90;;;;;;6159251;28;89296;-64
2022/09/24 02:08:29;;;;;;;28.15;25.25;;;19.80;99.90;;;;;;6147129;28;89086;-64
2022/09/24 02:11:35;;;;;;;28.05;25.05;;;19.80;99.90;;;;;;6146691;28;89516;-64
2022/09/24 02:14:42;;;;;;;27.30;24.42;;;19.80;99.90;;;;;;6142104;28;89072;-64
2022/09/24 02:17:49;;;;;;;28.55;25.55;;;19.80;99.90;;;;;;6149811;28;88338;-64
2022/09/24 02:20:52;;;;;;;27.02;24.30;;;19.80;99.90;;;;;;6151063;28;89419;-64
2022/09/24 02:24:01;;;;;;;27.50;24.60;;;19.80;99.90;;;;;;6146634;28;89373;-63
2022/09/24 02:27:03;;;;;;;28.13;25.13;;;19.80;99.90;;;;;;6148452;28;88948;-61
2022/09/24 02:30:09;;;;;;;26.67;23.88;;;19.80;99.90;;;;;;6153416;28;89101;-61
2022/09/24 02:36:30;;;;;;;26.33;23.50;;;19.80;99.90;;;;;;6135763;28;88417;-61
2022/09/24 02:39:32;;;;;;;25.38;22.67;;;19.80;99.90;;;;;;6151295;28;89190;-62
2022/09/24 02:42:35;;;;;;;26.65;23.48;;;19.80;99.90;;;;;;6157432;28;89122;-61
2022/09/24 02:45:37;;;;;;;26.23;23.52;;;19.80;99.90;;;;;;6148790;28;89094;-61
2022/09/24 02:48:41;;;;;;;26.00;22.95;;;19.80;99.90;;;;;;6147099;28;88433;-62
2022/09/24 02:51:44;;;;;;;25.98;23.17;;;19.80;99.90;;;;;;6158935;28;89439;-62
2022/09/24 02:54:46;;;;;;;25.52;22.83;;;19.80;99.90;;;;;;6154088;28;89042;-62
2022/09/24 02:57:48;;;;;;;24.08;21.65;;;19.80;99.90;;;;;;6154267;28;90359;-62
2022/09/24 03:00:50;;;;;;;25.15;22.55;;;19.80;99.90;;;;;;6158926;28;89342;-62
2022/09/24 03:03:54;;;;;;;24.63;22.13;;;19.80;99.90;;;;;;6150410;28;89086;-61
2022/09/24 03:06:56;;;;;;;25.05;22.35;;;19.80;99.90;;;;;;6152612;28;89081;-62
2022/09/24 03:09:58;;;;;;;23.48;21.00;;;19.80;99.90;;;;;;6155309;28;89188;-62
2022/09/24 03:13:00;;;;;;;25.13;22.38;;;19.80;99.90;;;;;;6159015;28;89031;-62
2022/09/24 03:16:02;;;;;;;23.40;21.00;;;19.80;99.90;;;;;;6147798;28;87964;-61
2022/09/24 03:19:06;;;;;;;23.52;21.13;;;19.80;99.90;;;;;;6158856;28;88504;-61
2022/09/24 03:22:08;;;;;;;23.05;20.75;;;19.80;99.90;;;;;;6145751;28;88997;-61
2022/09/24 03:25:10;;;;;;;23.60;21.20;;;19.80;99.90;;;;;;6145187;28;89619;-61
2022/09/24 03:28:13;;;;;;;23.80;21.33;;;19.80;99.90;;;;;;6143703;28;89944;-62
2022/09/24 03:31:15;;;;;;;23.58;21.15;;;19.80;99.90;;;;;;6152020;28;89113;-61
2022/09/24 03:34:18;;;;;;;22.85;20.50;;;19.80;99.90;;;;;;6151576;28;89546;-62
2022/09/24 03:37:20;;;;;;;23.05;20.63;;;19.80;99.90;;;;;;6147517;28;87917;-62
2022/09/24 03:40:23;;;;;;;22.73;20.42;;;19.70;99.90;;;;;;6140254;28;89456;-62
2022/09/24 03:43:25;;;;;;;22.65;20.35;;;19.80;99.90;;;;;;6144094;28;89397;-61
2022/09/24 03:46:28;;;;;;;22.02;19.80;;;19.80;99.90;;;;;;6150099;28;88279;-61
2022/09/24 03:49:32;;;;;;;21.52;19.33;;;19.80;99.90;;;;;;6143147;28;88818;-61
2022/09/24 03:52:34;;;;;;;22.13;19.83;;;19.80;99.90;;;;;;6157981;28;88322;-61
2022/09/24 03:55:36;;;;;;;20.92;18.75;;;19.80;99.90;;;;;;6151669;28;87946;-61
2022/09/24 03:58:38;;;;;;;21.83;19.50;;;19.70;99.90;;;;;;6149398;28;90006;-61
2022/09/24 04:01:40;;;;;;;21.90;19.70;;;19.80;99.90;;;;;;6154838;28;88978;-61
2022/09/24 04:04:44;;;;;;;21.08;18.90;;;19.80;99.90;;;;;;6140352;28;89121;-61
2022/09/24 04:07:46;;;;;;;20.95;18.85;;;19.80;99.90;;;;;;6145347;28;89360;-62
2022/09/24 04:10:49;;;;;;;21.83;19.52;;;19.80;99.90;;;;;;6156006;28;87886;-62
2022/09/24 04:13:54;;;;;;;20.33;18.33;;;19.80;99.90;;;;;;6150262;28;87974;-62
2022/09/24 04:16:57;;;;;;;21.13;18.92;;;19.80;99.90;;;;;;6139133;28;88986;-61
2022/09/24 04:20:01;;;;;;;20.40;18.35;;;19.70;99.90;;;;;;6150305;28;89404;-62
2022/09/24 04:23:04;;;;;;;20.95;18.83;;;19.80;99.90;;;;;;6157993;28;89135;-61
2022/09/24 04:26:06;;;;;;;20.42;18.25;;;19.80;99.90;;;;;;6157671;28;89375;-62
2022/09/24 04:29:08;;;;;;;20.50;18.23;;;19.80;99.90;;;;;;6157381;28;88948;-61
2022/09/24 04:32:10;;;;;;;19.02;17.13;;;19.80;99.90;;;;;;6157737;28;88228;-62
2022/09/24 04:35:13;;;;;;;19.85;17.83;;;19.70;99.90;;;;;;6146830;28;91330;-61
2022/09/24 04:38:15;;;;;;;20.00;18.00;;;19.70;99.90;;;;;;6144064;28;89506;-61
2022/09/24 04:41:17;;;;;;;19.40;17.40;;;19.70;99.90;;;;;;6145156;28;89139;-62
2022/09/24 04:44:19;;;;;;;18.00;16.13;;;19.80;99.90;;;;;;6157716;28;89085;-61
2022/09/24 04:47:24;;;;;;;18.15;16.35;;;19.80;99.90;;;;;;6150882;28;87930;-62
2022/09/24 04:50:32;;;;;;;18.38;16.48;;;19.70;99.90;;;;;;6135693;28;87088;-61
2022/09/24 04:53:35;;;;;;;19.33;17.33;;;19.80;99.90;;;;;;6155101;28;89064;-61
2022/09/24 04:56:37;;;;;;;18.38;16.50;;;19.80;99.90;;;;;;6149641;28;89034;-62
2022/09/24 04:59:39;;;;;;;18.50;16.58;;;19.80;99.90;;;;;;6147523;28;90046;-61
2022/09/24 05:02:41;;;;;;;17.40;15.60;;;19.80;99.90;;;;;;6147510;28;89113;-61
2022/09/24 05:05:45;;;;;;;18.58;16.60;;;19.80;99.90;;;;;;6144444;28;89137;-61
2022/09/24 05:08:47;;;;;;;18.40;16.50;;;19.80;99.90;;;;;;6157194;28;89032;-61
2022/09/24 05:11:49;;;;;;;17.85;16.05;;;19.80;99.90;;;;;;6154091;28;89189;-62
2022/09/24 05:14:51;;;;;;;17.42;15.63;;;19.70;99.90;;;;;;6145122;28;89115;-61
2022/09/24 05:17:53;;;;;;;16.25;14.65;;;19.80;99.90;;;;;;6145485;28;89091;-61
2022/09/24 05:20:56;;;;;;;18.02;16.23;;;19.70;99.90;;;;;;6146771;28;87097;-62
2022/09/24 05:23:58;;;;;;;17.02;15.32;;;19.70;99.90;;;;;;6132583;28;89076;-61
2022/09/24 05:27:09;;;;;;;16.95;15.15;;;19.70;99.90;;;;;;6135961;28;88946;-62
2022/09/24 05:30:12;;;;;;;16.63;14.93;;;19.70;99.90;;;;;;6142544;28;90228;-61
2022/09/24 05:33:14;;;;;;;16.27;14.57;;;19.70;99.90;;;;;;6156400;28;88041;-62
2022/09/24 05:36:18;;;;;;;16.55;14.93;;;19.70;99.90;;;;;;6143103;28;88019;-62
2022/09/24 05:39:20;;;;;;;16.55;14.95;;;19.70;99.90;;;;;;6132870;28;89183;-62
2022/09/24 05:42:22;;;;;;;16.05;14.45;;;19.70;99.90;;;;;;6145517;28;89266;-62
2022/09/24 05:45:24;;;;;;;15.77;14.18;;;19.70;99.90;;;;;;6153684;28;89045;-62
2022/09/24 05:48:26;;;;;;;15.35;13.85;;;19.70;99.90;;;;;;6143815;28;88339;-61
2022/09/24 05:51:29;;;;;;;15.30;13.77;;;19.70;99.90;;;;;;6143992;28;87578;-62
2022/09/24 05:54:32;;;;;;;15.63;14.13;;;19.70;99.90;;;;;;6155473;28;88046;-62
2022/09/24 05:57:34;;;;;;;16.60;14.82;;;19.70;99.90;;;;;;6144186;28;89030;-61
2022/09/24 06:00:36;;;;;;;15.95;14.35;;;19.80;99.90;;;;;;6155852;28;90144;-62
2022/09/24 06:03:38;;;;;;;15.30;13.70;;;19.70;99.90;;;;;;6134657;28;89460;-61
2022/09/24 06:06:42;;;;;;;15.30;13.77;;;19.70;99.90;;;;;;6155939;28;89133;-62
2022/09/24 06:09:44;;;;;;;15.65;14.05;;;19.70;99.90;;;;;;6145205;28;90536;-62
2022/09/24 06:12:46;;;;;;;15.60;14.07;;;19.70;99.90;;;;;;6154032;28;89461;-62
2022/09/24 06:15:48;;;;;;;15.35;13.85;;;19.80;99.90;;;;;;6142703;28;88036;-61
2022/09/24 06:18:50;;;;;;;15.43;13.90;;;19.70;99.90;;;;;;6150455;28;89479;-61
2022/09/24 06:21:54;;;;;;;15.82;14.13;;;19.70;99.90;;;;;;6148730;28;88286;-62
2022/09/24 06:24:56;;;;;;;15.23;13.73;;;19.80;99.90;;;;;;6156426;28;89306;-61
2022/09/24 06:28:00;;;;;;;15.20;13.70;;;19.80;99.90;;;;;;6143012;28;89284;-61
2022/09/24 06:31:02;;;;;;;14.98;13.38;;;19.80;99.90;;;;;;6145458;28;90024;-61
2022/09/24 06:34:04;;;;;;;14.77;13.38;;;19.80;99.90;;;;;;6150739;28;89114;-61
2022/09/24 06:37:07;;;;;;;14.32;12.82;;;19.80;99.90;;;;;;6143393;28;89174;-62
2022/09/24 06:40:10;;;;;;;14.57;13.18;;;19.80;99.90;;;;;;6152304;28;88299;-61
2022/09/24 06:43:13;;;;;;;14.93;13.43;;;19.80;99.90;;;;;;6148450;28;89556;-61
2022/09/24 06:46:15;;;;;;;14.27;12.90;;;19.80;99.90;;;;;;6159174;28;89435;-62
2022/09/24 06:49:17;;;;;;;14.18;12.77;;;19.80;99.90;;;;;;6147209;28;89056;-62
2022/09/24 06:52:22;;;;;;;14.45;12.95;;;19.80;99.90;;;;;;6158981;28;88432;-62
2022/09/24 06:55:25;;;;;;;14.15;12.75;;;19.80;99.90;;;;;;6159817;28;89156;-62
2022/09/24 06:58:28;;;;;;;14.32;12.82;;;19.70;99.90;;;;;;6159208;28;89090;-62
2022/09/24 07:01:30;;;;;;;14.40;12.90;;;19.80;99.90;;;;;;6152183;28;90103;-61
2022/09/24 07:04:31;;;;;;;13.60;12.30;;;19.80;99.90;;;;;;6148359;28;88031;-62
2022/09/24 07:07:36;;;;;;;14.25;12.77;;;19.80;99.90;;;;;;6142515;28;89184;-62
2022/09/24 07:10:42;;;;;;;14.27;12.85;;;19.80;99.90;;;;;;6145199;28;89060;-62
2022/09/24 07:13:44;;;;;;;14.30;12.80;;;19.80;99.90;;;;;;6158467;28;89144;-62
2022/09/24 07:16:47;;;;;;;13.75;12.35;;;19.80;99.90;;;;;;6146542;28;89091;-61
2022/09/24 07:19:50;;;;;;;14.02;12.63;;;19.80;99.90;;;;;;6159316;28;89030;-62
2022/09/24 07:22:53;;;;;;;13.35;12.02;;;19.80;99.90;;;;;;6159947;28;88375;-62
2022/09/24 07:25:56;;;;;;;14.00;12.60;;;19.80;99.90;;;;;;6138402;28;89132;-62
2022/09/24 07:28:58;;;;;;;13.43;12.10;;;19.80;99.90;;;;;;6148192;28;89092;-61
2022/09/24 07:32:00;;;;;;;13.68;12.27;;;19.80;99.90;;;;;;6150540;28;88916;-62
2022/09/24 07:35:02;;;;;;;13.60;12.20;;;19.80;99.90;;;;;;6158891;28;89171;-61
2022/09/24 07:38:07;;;;;;;12.90;11.60;;;19.80;99.90;;;;;;6159338;28;89105;-61
2022/09/24 07:41:09;;;;;;;12.40;11.20;;;19.80;99.90;;;;;;6135650;28;89109;-62
2022/09/24 07:44:12;;;;;;;13.00;11.75;;;19.80;99.90;;;;;;6157780;28;89147;-62
2022/09/24 07:47:15;;;;;;;12.68;11.38;;;19.80;99.90;;;;;;6158305;28;87942;-61
2022/09/24 07:50:17;;;;;;;12.30;11.05;;;19.80;99.90;;;;;;6147553;28;89079;-62
2022/09/24 07:53:22;;;;;;;13.10;11.80;;;19.80;99.90;;;;;;6152062;28;87129;-62
2022/09/24 07:56:25;;;;;;;13.38;12.00;;;19.90;99.90;;;;;;6146318;28;89245;-62
2022/09/24 07:59:27;;;;;;;12.57;11.27;;;19.90;99.90;;;;;;6147768;28;89279;-62
2022/09/24 08:02:29;;;;;;;13.15;11.85;;;19.90;99.90;;;;;;6142897;28;90281;-61
2022/09/24 08:05:31;;;;;;;12.75;11.55;;;19.90;99.90;;;;;;6158250;28;89121;-61
2022/09/24 08:08:35;;;;;;;13.68;12.13;;;19.90;99.90;;;;;;6156054;28;89118;-61
2022/09/24 08:11:38;;;;;;;13.10;11.70;;;19.90;99.90;;;;;;6146621;28;89018;-62
2022/09/24 08:14:40;;;;;;;12.68;11.48;;;19.90;99.90;;;;;;6147042;28;88085;-62
2022/09/24 08:17:42;;;;;;;12.30;11.05;;;19.90;99.90;;;;;;6158613;28;89436;-62
2022/09/24 08:20:44;;;;;;;12.05;10.85;;;19.90;99.90;;;;;;6152581;28;89063;-62
2022/09/24 08:23:48;;;;;;;11.80;10.68;;;19.90;99.90;;;;;;6150240;28;87162;-61
2022/09/24 08:26:50;;;;;;;12.60;11.30;;;19.90;99.90;;;;;;6155604;28;88869;-62
2022/09/24 08:29:52;;;;;;;11.70;10.55;;;19.90;99.90;;;;;;6134421;28;89079;-61
2022/09/24 08:32:55;;;;;;;12.23;11.13;;;19.90;99.90;;;;;;6156398;28;90226;-61
2022/09/24 08:35:59;;;;;;;11.95;10.75;;;19.90;99.90;;;;;;6149201;28;89146;-61
2022/09/24 08:39:03;;;;;;;12.00;10.80;;;19.90;99.90;;;;;;6155520;28;89231;-61
2022/09/24 08:42:06;;;;;;;11.35;10.25;;;19.90;99.90;;;;;;6157419;28;89358;-61
2022/09/24 08:48:33;;;;;;;11.82;10.63;;;19.90;99.90;;;;;;6143416;28;88046;-61
2022/09/24 08:51:41;;;;;;;11.90;10.70;;;19.90;99.90;;;;;;6157412;28;89323;-61
2022/09/24 08:54:45;;;;;;;11.60;10.50;;;19.90;99.90;;;;;;6158126;28;88341;-62
2022/09/24 08:57:57;;;;;;;12.23;10.95;;;19.90;99.90;;;;;;6157472;28;89213;-62
2022/09/24 09:01:07;;;;;;;11.10;9.95;;;19.90;99.90;;;;;;6153632;28;89102;-61
2022/09/24 09:04:25;;;;;;;10.90;9.80;;;19.90;99.90;;;;;;6151426;28;90175;-61
2022/09/24 09:07:32;;;;;;;10.95;9.85;;;19.90;99.90;;;;;;6150704;28;87949;-61
2022/09/24 09:10:39;;;;;;;11.52;10.43;;;19.90;99.90;;;;;;6151936;28;89204;-61
2022/09/24 09:13:45;;;;;;;11.55;10.35;;;19.90;99.90;;;;;;6157256;28;89208;-61
2022/09/24 09:16:52;;;;;;;11.23;10.10;;;19.90;99.90;;;;;;6155978;28;89261;-61
2022/09/24 09:19:58;;;;;;;11.50;10.30;;;20.00;99.90;;;;;;6156433;28;89867;-61
2022/09/24 09:23:10;;;;;;;10.77;9.73;;;19.90;99.90;;;;;;6134533;28;89091;-61
2022/09/24 09:26:15;;;;;;;11.20;10.10;;;19.90;99.90;;;;;;6143779;28;88312;-61
2022/09/24 09:29:18;;;;;;;11.27;10.13;;;19.90;99.90;;;;;;6135072;28;89200;-61
2022/09/24 09:32:33;;;;;;;10.27;9.27;;;19.90;99.90;;;;;;6150006;28;89098;-62
2022/09/24 09:35:42;;;;;;;11.50;10.40;;;19.90;99.90;;;;;;6157694;28;90129;-61
2022/09/24 09:38:53;;;;;;;10.52;9.52;;;19.90;99.90;;;;;;6156008;28;89167;-61
2022/09/24 09:42:05;;;;;;;10.38;9.38;;;19.90;99.90;;;;;;6157342;28;88993;-61
2022/09/24 09:45:20;;;;;;;10.23;9.27;;;19.90;99.90;;;;;;6156995;28;89194;-61
2022/09/24 09:48:25;;;;;;;11.13;10.02;;;19.90;99.90;;;;;;6155827;28;89453;-61
2022/09/24 09:51:32;;;;;;;11.20;10.10;;;19.90;99.90;;;;;;6153127;28;89161;-61
2022/09/24 09:54:37;;;;;;;10.45;9.40;;;19.90;99.90;;;;;;6148335;28;88881;-61
2022/09/24 09:57:41;;;;;;;11.18;9.82;;;19.90;99.90;;;;;;6157774;28;87463;-61
2022/09/24 10:00:45;;;;;;;10.65;9.63;;;19.90;99.90;;;;;;6156316;28;88977;-61
2022/09/24 10:03:49;;;;;;;10.25;9.25;;;19.90;99.90;;;;;;6135823;28;88954;-61
2022/09/24 10:06:51;;;;;;;10.50;9.50;;;19.90;99.90;;;;;;6155137;28;90040;-61
2022/09/24 10:10:16;;;;;;;10.15;9.15;;;19.90;99.90;;;;;;6156590;28;89437;-61
2022/09/24 10:13:19;;;;;;;10.45;9.35;;;19.90;99.90;;;;;;6146495;28;89116;-61
2022/09/24 10:16:21;;;;;;;10.05;9.05;;;20.00;99.90;;;;;;6144993;28;90180;-61
2022/09/24 10:19:26;;;;;;;9.55;8.55;;;20.00;99.90;;;;;;6150563;28;89206;-61
2022/09/24 10:22:29;;;;;;;9.60;8.70;;;20.00;99.90;;;;;;6155391;28;89140;-61
2022/09/24 10:25:33;;;;;;;9.75;8.82;;;20.00;99.90;;;;;;6147918;28;89495;-61
2022/09/24 10:32:02;;;;;;;10.13;9.00;;;19.90;99.90;;;;;;6158203;28;87308;-61
2022/09/24 10:35:21;;;;;;;10.02;8.98;;;19.90;99.90;;;;;;6148518;28;89101;-61
2022/09/24 10:38:23;;;;;;;9.73;8.73;;;19.90;99.90;;;;;;6144823;28;90164;-61
2022/09/24 10:41:28;;;;;;;9.93;8.90;;;19.90;99.90;;;;;;6150862;28;88824;-61
2022/09/24 10:44:35;;;;;;;9.60;8.68;;;19.90;99.90;;;;;;6160133;28;88950;-61
2022/09/24 10:47:47;;;;;;;9.30;8.40;;;20.00;99.90;;;;;;6148934;28;89102;-61
2022/09/24 10:50:57;;;;;;;9.10;8.25;;;19.90;99.90;;;;;;6160592;28;89100;-61
2022/09/24 10:54:12;;;;;;;9.05;8.15;;;19.90;99.90;;;;;;6161070;28;88964;-61
2022/09/24 10:57:25;;;;;;;9.30;8.40;;;19.90;99.90;;;;;;6160409;28;89206;-61
2022/09/24 11:00:35;;;;;;;9.88;8.85;;;19.90;99.90;;;;;;6148843;28;88313;-61
2022/09/24 11:03:57;;;;;;;9.40;8.48;;;19.90;99.90;;;;;;6157453;28;89102;-61
2022/09/24 11:07:29;;;;;;;8.88;7.97;;;19.90;99.90;;;;;;6152421;28;89160;-61
2022/09/24 11:10:53;;;;;;;9.38;8.27;;;19.90;99.90;;;;;;6142270;28;90160;-61
2022/09/24 11:14:05;;;;;;;9.25;8.27;;;19.90;99.90;;;;;;6156010;28;89024;-61
2022/09/24 11:17:36;;;;;;;8.90;8.02;;;19.90;99.90;;;;;;6159308;28;88118;-61
2022/09/24 11:20:43;;;;;;;9.15;8.25;;;19.90;99.90;;;;;;6142379;28;88264;-61
2022/09/24 11:24:15;;;;;;;9.35;8.38;;;19.90;99.90;;;;;;6156899;28;89192;-61
2022/09/24 11:27:38;;;;;;;8.85;7.95;;;20.00;99.90;;;;;;6158928;28;89094;-61
2022/09/24 11:30:48;;;;;;;9.38;8.48;;;20.00;99.90;;;;;;6147238;28;89138;-61
2022/09/24 11:34:11;;;;;;;9.40;8.40;;;19.90;99.90;;;;;;6151486;28;88319;-61
2022/09/24 11:37:26;;;;;;;8.43;7.63;;;19.90;99.90;;;;;;6142537;28;89039;-61
2022/09/24 11:40:41;;;;;;;8.52;7.68;;;20.00;99.90;;;;;;6155076;28;89483;-62
2022/09/24 11:44:02;;;;;;;8.82;7.80;;;19.90;99.90;;;;;;6154086;28;90035;-61
2022/09/24 11:47:24;;;;;;;9.80;8.10;;;20.00;99.90;;;;;;6155843;28;88015;-61
2022/09/24 11:50:42;;;;;;;9.07;7.82;;;19.90;99.90;;;;;;6148030;28;89087;-61
2022/09/24 11:53:51;;;;;;;9.15;8.05;;;19.90;99.90;;;;;;6150284;28;89297;-61
2022/09/24 11:56:58;;;;;;;9.00;7.90;;;20.00;99.90;;;;;;6158379;28;89090;-62
2022/09/24 12:00:06;;;;;;;8.30;7.50;;;19.90;99.90;;;;;;6153810;28;89076;-61
2022/09/24 12:03:16;;;;;;;9.68;7.53;;;19.90;99.90;;;;;;6148452;28;88985;-61
2022/09/24 12:06:24;;;;;;;9.75;7.53;;;19.90;99.90;;;;;;6146628;28;88572;-61
2022/09/24 12:09:31;;;;;;;9.10;7.57;;;19.90;99.90;;;;;;6146878;28;89131;-61
2022/09/24 12:12:37;;;;;;;8.50;7.20;;;19.90;99.90;;;;;;6149220;28;88999;-61
2022/09/24 12:15:47;;;;;;;8.32;7.50;;;20.00;99.90;;;;;;6147407;28;90109;-61
2022/09/24 12:18:55;;;;;;;8.60;7.70;;;20.00;99.90;;;;;;6141713;28;89107;-62
2022/09/24 12:22:02;;;;;;;9.52;7.55;;;20.00;99.90;;;;;;6151888;28;89007;-61
2022/09/24 12:25:07;;;;;;;8.13;7.32;;;20.00;99.90;;;;;;6135799;28;89096;-62
2022/09/24 12:28:12;;;;;;;9.48;8.00;;;20.00;99.90;;;;;;6159643;28;89046;-61
2022/09/24 12:34:49;;;;;;;7.97;7.18;;;20.00;99.90;;;;;;6157226;28;87353;-61
2022/09/24 12:37:58;;;;;;;7.88;7.13;;;20.00;99.90;;;;;;6148127;28;88701;-62
2022/09/24 12:41:24;;;;;;;7.53;6.80;;;20.00;99.90;;;;;;6135481;28;89034;-61
2022/09/24 12:44:31;;;;;;;8.35;7.45;;;20.00;99.90;;;;;;6147808;28;88884;-61
2022/09/24 12:47:47;;;;;;;8.18;7.38;;;20.00;99.90;;;;;;6157837;28;90250;-61
2022/09/24 12:50:57;;;;;;;7.72;6.93;;;20.00;99.90;;;;;;6146996;28;89300;-61
2022/09/24 12:54:08;;;;;;;7.88;6.95;;;20.00;99.90;;;;;;6134801;28;89209;-61
2022/09/24 12:57:15;;;;;;;7.85;7.05;;;20.00;99.90;;;;;;6147243;28;89079;-61
2022/09/24 13:00:40;;;;;;;7.82;7.03;;;20.00;99.90;;;;;;6157897;28;89114;-62
2022/09/24 13:03:42;;;;;;;7.53;6.75;;;20.00;99.90;;;;;;6144747;28;89421;-61
2022/09/24 13:06:47;;;;;;;7.80;7.00;;;20.00;99.90;;;;;;6158418;28;89011;-62
2022/09/24 13:09:50;;;;;;;7.78;7.07;;;20.00;99.90;;;;;;6148839;28;87377;-61
2022/09/24 13:12:53;;;;;;;7.03;6.35;;;20.00;99.90;;;;;;6157173;28;88948;-61
2022/09/24 13:16:04;;;;;;;7.47;6.78;;;20.00;99.90;;;;;;6150743;28;89462;-61
2022/09/24 13:19:19;;;;;;;7.72;7.00;;;20.00;99.90;;;;;;6152830;28;90449;-61
2022/09/24 13:22:25;;;;;;;7.30;6.60;;;20.00;99.90;;;;;;6156331;28;89459;-62
2022/09/24 13:25:29;;;;;;;7.05;6.35;;;20.00;99.90;;;;;;6157362;28;89063;-61
2022/09/24 13:28:33;;;;;;;7.40;6.65;;;20.00;99.90;;;;;;6158079;28;89283;-61
2022/09/24 13:31:46;;;;;;;6.85;6.15;;;20.00;99.90;;;;;;6157881;28;89047;-61
2022/09/24 13:34:50;;;;;;;7.55;6.72;;;20.00;99.90;;;;;;6143213;28;89149;-61
2022/09/24 13:37:55;;;;;;;7.00;6.38;;;20.00;99.90;;;;;;6147246;28;89372;-61
2022/09/24 13:41:03;;;;;;;7.03;6.32;;;20.00;99.90;;;;;;6146425;28;88322;-62
2022/09/24 13:44:15;;;;;;;7.38;6.68;;;20.00;99.90;;;;;;6144336;28;90269;-61
2022/09/24 13:47:28;;;;;;;7.35;6.63;;;20.00;99.90;;;;;;6157518;28;89386;-61
2022/09/24 13:50:33;;;;;;;7.78;6.70;;;20.00;99.90;;;;;;6156579;28;90083;-61
2022/09/24 13:53:40;;;;;;;6.82;6.18;;;20.00;99.90;;;;;;6151891;28;89109;-61
2022/09/24 13:56:55;;;;;;;7.03;6.40;;;20.00;99.90;;;;;;6164733;28;89054;-61
2022/09/24 14:00:15;;;;;;;7.13;6.43;;;20.00;99.90;;;;;;6144111;28;89331;-62
2022/09/24 14:03:22;;;;;;;7.13;6.43;;;20.00;99.90;;;;;;6140927;28;90147;-62
2022/09/24 14:06:34;;;;;;;6.65;6.05;;;20.00;99.90;;;;;;6150151;28;88988;-61
2022/09/24 14:09:37;;;;;;;7.13;6.43;;;20.00;99.90;;;;;;6165035;28;89089;-62
2022/09/24 14:12:40;;;;;;;6.78;6.18;;;20.00;99.90;;;;;;6152479;28;88357;-62
2022/09/24 14:15:51;;;;;;;6.50;5.90;;;20.00;99.90;;;;;;6146119;28;88000;-62
2022/09/24 14:19:02;;;;;;;6.65;6.00;;;20.00;99.90;;;;;;6159319;28;88986;-62
2022/09/24 14:22:07;;;;;;;7.63;6.80;;;20.00;99.90;;;;;;6150645;28;89920;-62
2022/09/24 14:25:14;;;;;;;6.90;5.93;;;20.00;99.90;;;;;;6164690;28;89175;-62
2022/09/24 14:28:18;;;;;;;6.78;6.13;;;20.00;99.90;;;;;;6165316;28;89366;-62
2022/09/24 14:31:20;;;;;;;6.25;5.50;;;20.00;99.90;;;;;;6165263;28;89444;-62
2022/09/24 14:34:27;;;;;;;6.60;6.00;;;20.00;99.90;;;;;;6162444;28;88013;-62
2022/09/24 14:37:32;;;;;;;6.40;5.80;;;20.00;99.90;;;;;;6151311;28;89340;-62
2022/09/24 14:40:42;;;;;;;6.50;5.90;;;20.00;99.90;;;;;;6164385;28;89190;-62
2022/09/24 14:43:50;;;;;;;6.88;5.65;;;20.00;99.90;;;;;;6164411;28;87175;-62
2022/09/24 14:46:55;;;;;;;6.85;6.15;;;20.00;99.90;;;;;;6164514;28;89135;-62
2022/09/24 14:49:57;;;;;;;6.60;5.70;;;20.00;99.90;;;;;;6163078;28;89181;-62
2022/09/24 14:52:59;;;;;;;6.60;6.00;;;20.00;99.90;;;;;;6162382;28;90014;-62
2022/09/24 14:56:17;;;;;;;6.80;6.10;;;20.00;99.90;;;;;;6146193;28;88031;-62
2022/09/24 14:59:29;;;;;;;6.43;5.82;;;20.00;99.90;;;;;;6144703;28;89422;-62
2022/09/24 15:02:36;;;;;;;6.25;5.65;;;19.90;99.90;;;;;;6151778;28;89376;-62
2022/09/24 15:05:38;;;;;;;6.43;5.80;;;20.00;99.90;;;;;;6156287;28;89051;-62
2022/09/24 15:08:42;;;;;;;7.25;5.65;;;20.00;99.90;;;;;;6142142;28;89071;-62
2022/09/24 15:11:45;;;;;;;6.32;5.65;;;20.00;99.90;;;;;;6147801;28;89084;-62
2022/09/24 15:14:59;;;;;;;7.43;5.88;;;20.00;99.90;;;;;;6152821;28;88323;-62
2022/09/24 15:18:01;;;;;;;8.70;6.00;;;20.00;99.90;;;;;;6139219;28;88893;-62
2022/09/24 15:21:07;;;;;;;10.80;6.18;;;20.00;99.90;;;;;;6157648;28;89396;-62
2022/09/24 15:24:09;;;;;;;6.78;5.88;;;20.00;99.90;;;;;;6154615;28;90135;-61
2022/09/24 15:27:19;;;;;;;9.70;5.85;;;20.00;99.90;;;;;;6156293;28;89395;-62
2022/09/24 15:30:23;;;;;;;11.48;6.22;;;20.00;99.90;;;;;;6153499;28;89108;-63
2022/09/24 15:33:25;;;;;;;11.45;6.72;;;20.10;99.90;;;;;;6151977;28;89012;-62
2022/09/24 15:36:27;;;;;;;15.43;7.38;;;20.00;99.90;;;;;;6153675;28;89069;-62
2022/09/24 15:39:30;;;;;;;12.82;6.80;;;20.10;99.90;;;;;;6148099;28;89214;-62
2022/09/24 15:42:32;;;;;;;14.73;7.32;;;20.10;99.90;;;;;;6150769;28;89081;-62
2022/09/24 15:45:36;;;;;;;12.27;6.90;;;20.30;99.90;;;;;;6154501;28;88368;-62
2022/09/24 15:48:38;;;;;;;13.07;6.93;;;20.30;99.90;;;;;;6157016;28;89234;-62
2022/09/24 15:51:40;;;;;;;11.05;7.10;;;20.40;99.90;;;;;;6146017;28;89071;-61
2022/09/24 15:54:42;;;;;;;8.90;6.80;;;20.50;99.90;;;;;;6151774;28;90024;-62
2022/09/24 15:57:45;;;;;;;8.85;6.78;;;20.50;99.90;;;;;;6159244;28;89128;-63
2022/09/24 16:00:49;;;;;;;8.02;6.43;;;20.60;99.90;;;;;;6138302;28;89173;-63
2022/09/24 16:03:52;;;;;;;13.02;6.68;;;20.70;99.90;;;;;;6147520;28;89048;-62
2022/09/24 16:06:54;;;;;;;8.98;6.20;;;20.80;99.90;;;;;;6146966;28;88865;-63